Time;durP1;ratioP1;P1;durP2;ratioP2;P2;SDS_P1;SDS_P2;PMS_P1;PMS_P2;Temp;Humidity;BMP_temperature;BMP_pressure;BME280_temperature;BME280_humidity;BME280_pressure;Samples;Min_cycle;Max_cycle;Signal;HPM_P1;HPM_P2
2021/12/10 00:04:55;;;;;;;1.17;0.57;;;20.20;24.80;20.80;92526.00;;;;10480935;28;45226;-63
2021/12/10 00:10:02;;;;;;;1.20;0.63;;;20.30;24.90;20.70;92507.00;;;;10481020;28;45471;-63
2021/12/10 00:15:06;;;;;;;1.13;0.70;;;20.20;24.80;20.70;92489.00;;;;10444928;28;45157;-62
2021/12/10 00:20:09;;;;;;;2.10;0.77;;;20.20;24.80;20.70;92476.00;;;;10420175;28;48113;-62
2021/12/10 00:25:18;;;;;;;2.00;0.90;;;20.20;24.90;20.70;92477.00;;;;10454186;28;47006;-63
2021/12/10 00:30:31;;;;;;;1.48;0.70;;;20.20;24.80;20.70;92472.00;;;;10462818;28;47089;-63
2021/12/10 00:35:33;;;;;;;1.73;0.65;;;20.20;24.90;20.70;92460.00;;;;10479346;28;46947;-62
2021/12/10 00:40:33;;;;;;;1.95;0.70;;;20.20;24.80;20.70;92431.00;;;;10480667;28;45223;-61
2021/12/10 00:45:34;;;;;;;1.05;0.70;;;20.20;24.90;20.70;92414.00;;;;10478968;28;45199;-63
2021/12/10 00:50:45;;;;;;;1.38;0.88;;;20.20;24.90;20.70;92387.00;;;;10479373;28;45335;-63
2021/12/10 00:55:46;;;;;;;1.23;0.50;;;20.20;24.90;20.70;92371.00;;;;10461173;28;46883;-63
2021/12/10 01:01:00;;;;;;;0.95;0.68;;;20.20;24.90;20.70;92375.00;;;;10478715;28;45968;-63
2021/12/10 01:06:06;;;;;;;1.52;0.70;;;20.20;24.90;20.70;92348.00;;;;10460727;28;48117;-62
2021/12/10 01:11:22;;;;;;;1.13;0.60;;;20.20;24.90;20.70;92330.00;;;;10478493;28;45445;-63
2021/12/10 01:26:57;;;;;;;1.88;0.70;;;20.20;24.90;20.60;92299.00;;;;10477024;28;45190;-62
2021/12/10 01:32:00;;;;;;;1.60;0.75;;;20.10;24.90;20.60;92277.00;;;;10477000;28;46246;-63
2021/12/10 01:37:02;;;;;;;0.63;0.50;;;20.20;24.90;20.60;92266.00;;;;10476082;28;45330;-61
2021/12/10 01:47:36;;;;;;;1.38;0.70;;;20.10;24.90;20.60;92261.00;;;;10460554;28;45364;-61
2021/12/10 01:52:37;;;;;;;1.23;0.65;;;20.10;24.90;20.60;92247.00;;;;10477301;28;45368;-61
2021/12/10 01:57:39;;;;;;;1.50;0.70;;;20.10;24.80;20.60;92239.00;;;;10474535;28;46164;-62
2021/12/10 02:02:44;;;;;;;2.17;0.68;;;20.10;24.90;20.60;92210.00;;;;10471875;28;47021;-62
2021/12/10 02:07:47;;;;;;;1.40;0.80;;;20.10;24.90;20.60;92204.00;;;;10458267;28;47149;-61
2021/12/10 02:12:48;;;;;;;2.40;0.80;;;20.10;24.90;20.60;92175.00;;;;10460771;28;45403;-61
2021/12/10 02:17:50;;;;;;;1.58;0.80;;;20.10;24.90;20.60;92144.00;;;;10407805;28;46390;-62
2021/12/10 02:22:51;;;;;;;1.70;0.70;;;20.10;24.90;20.60;92132.00;;;;10394026;28;46144;-62
2021/12/10 02:27:53;;;;;;;1.85;0.60;;;20.10;24.90;20.60;92134.00;;;;10392127;28;45370;-61
2021/12/10 02:32:54;;;;;;;1.13;0.68;;;20.10;24.80;20.60;92116.00;;;;10392985;28;45260;-61
2021/12/10 02:37:56;;;;;;;3.67;0.93;;;20.10;24.80;20.60;92112.00;;;;10393915;28;45585;-63
2021/12/10 02:43:01;;;;;;;1.10;0.68;;;20.10;24.90;20.60;92094.00;;;;10399128;28;47236;-62
2021/12/10 02:48:02;;;;;;;1.85;0.70;;;20.10;24.90;20.60;92083.00;;;;10398977;28;45473;-61
2021/12/10 02:53:07;;;;;;;1.42;0.60;;;20.10;24.80;20.60;92079.00;;;;10399737;28;45245;-61
2021/12/10 02:58:11;;;;;;;1.17;0.50;;;20.10;24.90;20.60;92095.00;;;;10398726;28;45427;-61
2021/12/10 03:03:12;;;;;;;1.27;0.68;;;20.10;24.80;20.60;92081.00;;;;10400522;28;46427;-61
2021/12/10 03:08:13;;;;;;;0.95;0.68;;;20.10;24.90;20.60;92075.00;;;;10398853;28;45375;-61
2021/12/10 03:13:15;;;;;;;1.13;0.65;;;20.10;25.40;20.60;92073.00;;;;10420859;28;47134;-61
2021/12/10 03:18:19;;;;;;;1.13;0.70;;;20.10;24.90;20.60;92072.00;;;;10481771;28;45415;-62
2021/12/10 03:23:20;;;;;;;0.75;0.52;;;20.00;24.80;20.60;92063.00;;;;10482844;28;45503;-61
2021/12/10 03:28:20;;;;;;;0.93;0.52;;;20.10;24.90;20.60;92031.00;;;;10481466;28;45414;-61
2021/12/10 03:33:21;;;;;;;1.58;0.60;;;20.10;24.80;20.50;92024.00;;;;10481764;28;45281;-62
2021/12/10 03:38:25;;;;;;;0.98;0.50;;;20.00;24.80;20.50;92013.00;;;;10463761;28;47392;-61
2021/12/10 03:43:27;;;;;;;1.13;0.77;;;20.10;24.80;20.50;92019.00;;;;10481227;28;46089;-62
2021/12/10 03:48:36;;;;;;;0.93;0.60;;;20.00;24.80;20.50;92019.00;;;;10463554;28;47286;-61
2021/12/10 03:53:37;;;;;;;1.52;0.60;;;20.00;24.80;20.50;92025.00;;;;10481083;28;45575;-62
2021/12/10 03:58:41;;;;;;;0.55;0.50;;;20.00;24.70;20.50;92023.00;;;;10479809;28;45281;-61
2021/12/10 04:03:44;;;;;;;1.27;0.65;;;20.00;24.70;20.50;92007.00;;;;10480863;28;45561;-62
2021/12/10 04:08:45;;;;;;;1.67;0.70;;;20.00;24.70;20.50;92010.00;;;;10480048;28;46430;-62
2021/12/10 04:13:50;;;;;;;1.63;0.70;;;20.00;25.20;20.50;91998.00;;;;10456726;28;46592;-62
2021/12/10 04:18:54;;;;;;;0.98;0.63;;;20.00;24.70;20.60;92000.00;;;;10437952;28;45400;-61
2021/12/10 04:23:55;;;;;;;1.35;0.60;;;20.00;24.60;20.60;91991.00;;;;10437924;28;45402;-61
2021/12/10 04:28:56;;;;;;;0.95;0.68;;;20.00;24.60;20.60;91959.00;;;;10437648;28;46268;-61
2021/12/10 04:33:57;;;;;;;1.13;0.60;;;20.10;24.60;20.60;91941.00;;;;10437296;28;48334;-62
2021/12/10 04:38:58;;;;;;;2.50;0.70;;;20.00;24.60;20.60;91943.00;;;;10437269;28;45227;-62
2021/12/10 04:43:58;;;;;;;1.30;0.70;;;20.10;24.60;20.60;91935.00;;;;10438765;28;45439;-61
2021/12/10 04:49:05;;;;;;;1.13;0.63;;;20.10;24.60;20.60;91927.00;;;;10438461;28;46142;-62
2021/12/10 04:54:08;;;;;;;;;;;20.10;24.60;20.60;91921.00;;;;10437833;28;45342;-63
2021/12/10 04:59:16;;;;;;;1.15;0.63;;;20.10;24.60;20.60;91899.00;;;;10436461;28;45185;-63
2021/12/10 05:04:16;;;;;;;1.25;0.70;;;20.10;24.60;20.60;91916.00;;;;10435793;28;45410;-63
2021/12/10 05:09:20;;;;;;;2.67;0.60;;;20.10;24.60;20.60;91906.00;;;;10436846;28;46379;-62
2021/12/10 05:14:21;;;;;;;1.50;0.70;;;20.10;24.60;20.70;91894.00;;;;10465138;28;45515;-63
2021/12/10 05:19:25;;;;;;;1.15;0.68;;;20.20;24.60;20.70;91900.00;;;;10460313;28;47480;-63
2021/12/10 05:24:27;;;;;;;1.25;0.73;;;20.20;24.60;20.80;91880.00;;;;10479288;28;45508;-63
2021/12/10 05:29:29;;;;;;;1.42;0.70;;;20.30;24.60;20.80;91840.00;;;;10477169;28;45149;-63
2021/12/10 05:34:29;;;;;;;1.50;0.73;;;20.30;24.50;20.90;91831.00;;;;10478924;28;45587;-63
2021/12/10 05:39:30;;;;;;;2.22;0.90;;;20.40;24.50;20.90;91830.00;;;;10477288;28;46670;-63
2021/12/10 05:44:31;;;;;;;3.47;1.30;;;20.40;24.50;20.90;91822.00;;;;10477421;28;45431;-63
2021/12/10 05:49:32;;;;;;;2.58;1.10;;;20.40;24.50;20.90;91801.00;;;;10477984;28;45196;-63
2021/12/10 05:54:34;;;;;;;3.25;1.25;;;20.40;24.40;20.90;91814.00;;;;10460058;28;47344;-63
2021/12/10 05:59:35;;;;;;;2.70;1.10;;;20.40;24.40;20.90;91798.00;;;;10476679;28;45416;-63
2021/12/10 06:04:36;;;;;;;2.05;0.90;;;20.50;24.30;20.90;91789.00;;;;10476490;28;48094;-63
2021/12/10 06:09:37;;;;;;;2.15;1.00;;;20.40;24.30;20.90;91766.00;;;;10459708;28;45689;-63
2021/12/10 06:14:37;;;;;;;2.00;1.05;;;20.40;24.30;20.90;91770.00;;;;10461693;28;47011;-63
2021/12/10 06:19:38;;;;;;;1.27;0.77;;;20.40;24.30;20.90;91774.00;;;;10443350;28;46862;-62
2021/12/10 06:24:39;;;;;;;2.38;1.10;;;20.40;24.30;20.90;91767.00;;;;10441911;28;48199;-63
2021/12/10 06:29:42;;;;;;;1.98;1.13;;;20.40;24.40;20.90;91759.00;;;;10444193;28;47949;-62
2021/12/10 06:34:43;;;;;;;1.77;1.00;;;20.40;24.30;20.90;91749.00;;;;10438166;28;45335;-63
2021/12/10 06:39:43;;;;;;;1.77;0.82;;;20.40;24.30;20.90;91771.00;;;;10408324;27;45368;-63
2021/12/10 06:44:44;;;;;;;1.92;1.00;;;20.40;24.30;21.00;91762.00;;;;10420511;28;48073;-63
2021/12/10 06:49:45;;;;;;;1.70;1.00;;;20.50;24.30;21.00;91756.00;;;;10419736;28;47040;-63
2021/12/10 06:54:46;;;;;;;2.13;1.08;;;20.50;24.30;21.00;91765.00;;;;10416784;28;47224;-62
2021/12/10 06:59:46;;;;;;;2.17;0.90;;;20.50;24.30;21.00;91762.00;;;;10436365;28;45173;-63
2021/12/10 07:04:47;;;;;;;2.78;1.20;;;20.50;24.30;21.00;91777.00;;;;10421025;28;45125;-63
2021/12/10 07:09:48;;;;;;;2.92;1.27;;;20.50;24.30;21.00;91773.00;;;;10439727;28;45194;-63
2021/12/10 07:14:48;;;;;;;1.77;1.08;;;20.50;24.30;21.00;91784.00;;;;10471861;28;45301;-63
2021/12/10 07:19:49;;;;;;;1.75;1.05;;;20.50;24.30;21.00;91769.00;;;;10482255;28;45525;-63
2021/12/10 07:24:50;;;;;;;1.95;1.10;;;20.50;24.20;21.00;91758.00;;;;10481111;28;45306;-62
2021/12/10 07:29:50;;;;;;;2.35;1.10;;;20.50;24.30;21.00;91740.00;;;;10482889;28;45518;-63
2021/12/10 07:34:53;;;;;;;1.63;1.00;;;20.50;24.20;21.00;91760.00;;;;10482788;28;46567;-61
2021/12/10 07:39:53;;;;;;;1.08;0.73;;;20.50;24.30;21.00;91755.00;;;;10481141;28;46419;-63
2021/12/10 07:44:56;;;;;;;1.65;0.95;;;20.50;24.20;21.00;91757.00;;;;10476035;28;45302;-62
2021/12/10 07:49:57;;;;;;;1.70;1.00;;;20.50;24.20;21.00;91745.00;;;;10421859;28;45119;-63
2021/12/10 07:54:58;;;;;;;1.85;1.10;;;20.50;24.20;21.00;91732.00;;;;10438315;28;47970;-62
2021/12/10 07:59:59;;;;;;;1.88;0.98;;;20.50;24.20;21.00;91716.00;;;;10438519;28;45734;-63
2021/12/10 08:04:59;;;;;;;1.58;1.00;;;20.50;24.20;21.00;91749.00;;;;10439712;28;45721;-63
2021/12/10 08:10:00;;;;;;;4.75;0.90;;;20.50;24.20;21.00;91739.00;;;;10438429;28;47203;-63
2021/12/10 08:15:02;;;;;;;1.95;1.00;;;20.50;24.20;21.00;91728.00;;;;10472198;28;45384;-61
2021/12/10 08:20:08;;;;;;;1.75;1.10;;;20.50;24.10;21.10;91726.00;;;;10480931;28;46223;-62
2021/12/10 08:25:10;;;;;;;2.42;1.50;;;20.50;24.10;20.10;91730.00;;;;10479841;28;45941;-59
2021/12/10 08:30:15;;;;;;;1.70;1.02;;;20.00;23.50;20.50;91747.00;;;;10425295;28;47437;-61
2021/12/10 08:35:21;;;;;;;2.28;1.00;;;20.00;24.20;20.60;91733.00;;;;10435807;28;46218;-61
2021/12/10 08:40:25;;;;;;;;;;;20.10;24.20;20.70;91720.00;;;;10438770;28;45194;-61
2021/12/10 08:45:27;;;;;;;2.20;1.20;;;20.20;24.30;20.70;91738.00;;;;10433242;28;46479;-64
2021/12/10 08:50:28;;;;;;;2.05;0.90;;;20.20;24.40;20.70;91724.00;;;;10435816;28;46059;-61
2021/12/10 08:55:31;;;;;;;1.75;1.10;;;20.20;24.20;20.70;91723.00;;;;10428769;28;46258;-62
2021/12/10 09:00:34;;;;;;;2.40;1.10;;;20.20;24.50;20.70;91708.00;;;;10427410;28;45404;-65
2021/12/10 09:05:36;;;;;;;2.20;1.45;;;20.20;24.30;20.70;91707.00;;;;10436075;28;45529;-60
2021/12/10 09:10:41;;;;;;;3.80;1.58;;;20.30;23.90;20.60;91727.00;;;;10437450;28;46366;-60
2021/12/10 09:15:50;;;;;;;2.80;1.70;;;20.20;23.50;20.50;91716.00;;;;10475857;28;46227;-61
2021/12/10 09:20:56;;;;;;;1.98;1.40;;;20.20;23.20;20.60;91705.00;;;;10461360;28;47943;-60
2021/12/10 09:26:06;;;;;;;1.92;1.10;;;20.10;23.40;20.60;91692.00;;;;10479027;28;45216;-60
2021/12/10 09:31:08;;;;;;;2.45;1.15;;;20.10;23.60;20.60;91697.00;;;;10477861;28;45544;-62
2021/12/10 09:36:11;;;;;;;3.00;0.85;;;20.10;23.70;20.60;91696.00;;;;10420611;28;48508;-66
2021/12/10 09:41:12;;;;;;;1.45;0.90;;;20.20;23.80;20.70;91693.00;;;;10435332;28;45334;-60
2021/12/10 09:46:13;;;;;;;1.40;0.70;;;20.20;23.90;20.80;91668.00;;;;10429576;28;46553;-65
2021/12/10 09:51:32;;;;;;;2.45;0.75;;;20.30;24.40;20.90;91664.00;;;;10433429;28;46674;-65
2021/12/10 09:56:33;;;;;;;0.90;0.70;;;20.40;24.80;21.00;91645.00;;;;10430399;28;45486;-64
2021/12/10 10:01:42;;;;;;;2.22;0.70;;;20.50;24.80;21.00;91639.00;;;;10427822;28;46625;-60
2021/12/10 10:06:51;;;;;;;1.35;0.88;;;20.50;24.90;21.00;91649.00;;;;10415860;28;48010;-62
2021/12/10 10:12:11;;;;;;;1.35;0.80;;;20.60;25.20;21.10;91644.00;;;;10434987;28;45206;-64
2021/12/10 10:17:15;;;;;;;2.05;0.90;;;20.60;25.10;21.10;91640.00;;;;10433742;28;45483;-65
2021/12/10 10:22:22;;;;;;;1.63;0.88;;;20.60;25.10;20.90;91632.00;;;;10433655;28;45509;-62
2021/12/10 10:27:30;;;;;;;2.10;0.80;;;20.50;23.60;20.80;91608.00;;;;10415852;28;47282;-62
2021/12/10 10:32:34;;;;;;;2.88;0.90;;;20.40;23.90;20.80;91601.00;;;;10434048;28;46451;-64
2021/12/10 10:37:36;;;;;;;1.00;0.70;;;20.40;23.90;20.80;91599.00;;;;10433441;28;45211;-63
2021/12/10 10:42:37;;;;;;;1.25;0.73;;;20.40;24.20;20.80;91606.00;;;;10433318;28;45557;-60
2021/12/10 10:47:37;;;;;;;1.40;0.68;;;20.40;24.30;20.80;91602.00;;;;10432557;28;46009;-61
2021/12/10 10:52:47;;;;;;;1.23;0.60;;;20.40;24.30;20.80;91596.00;;;;10434396;28;46137;-62
2021/12/10 10:58:09;;;;;;;1.13;0.73;;;20.40;24.30;20.80;91593.00;;;;10409324;28;46967;-63
2021/12/10 11:03:18;;;;;;;1.17;0.73;;;20.40;24.30;20.80;91589.00;;;;10415875;28;46694;-60
2021/12/10 11:08:41;;;;;;;1.10;0.70;;;20.40;24.60;21.00;91588.00;;;;10401121;28;46862;-63
2021/12/10 11:13:46;;;;;;;1.08;0.70;;;20.40;25.00;21.00;91585.00;;;;10444432;28;46546;-64
2021/12/10 11:18:56;;;;;;;1.17;0.75;;;20.50;25.30;21.00;91574.00;;;;10429520;28;47234;-63
2021/12/10 11:24:12;;;;;;;1.42;1.10;;;20.50;25.20;20.90;91588.00;;;;10433897;28;45429;-62
2021/12/10 11:29:36;;;;;;;2.60;0.90;;;20.50;25.10;20.80;91585.00;;;;10396883;28;45305;-62
2021/12/10 11:35:02;;;;;;;1.75;1.08;;;20.40;25.10;20.90;91585.00;;;;10380885;28;47073;-61
2021/12/10 11:40:06;;;;;;;2.50;1.08;;;20.40;25.20;20.90;91579.00;;;;10409634;28;45541;-62
2021/12/10 11:45:43;;;;;;;3.25;0.93;;;20.40;25.70;21.00;91585.00;;;;10436022;28;45329;-61
2021/12/10 11:51:00;;;;;;;1.67;0.82;;;20.50;26.00;20.90;91568.00;;;;10422594;28;47309;-63
2021/12/10 11:56:25;;;;;;;1.30;0.85;;;20.40;26.20;20.90;91583.00;;;;10438850;28;46658;-61
2021/12/10 12:01:26;;;;;;;1.05;0.70;;;20.40;26.20;20.80;91587.00;;;;10438913;28;46827;-61
2021/12/10 12:06:27;;;;;;;1.67;0.90;;;20.40;26.30;20.80;91589.00;;;;10438336;28;45294;-61
2021/12/10 12:11:28;;;;;;;0.80;0.80;;;20.40;26.40;20.80;91596.00;;;;10442869;28;45317;-61
2021/12/10 12:16:29;;;;;;;1.10;0.90;;;20.40;26.40;20.80;91575.00;;;;10480317;28;45223;-61
2021/12/10 12:26:33;;;;;;;1.17;0.73;;;20.40;26.50;20.80;91587.00;;;;10479538;28;45256;-61
2021/12/10 12:31:54;;;;;;;1.55;0.77;;;20.40;26.40;20.80;91592.00;;;;10479801;28;45195;-61
2021/12/10 12:37:03;;;;;;;1.02;0.70;;;20.30;26.40;20.80;91591.00;;;;10477949;28;46226;-60
2021/12/10 12:42:19;;;;;;;1.08;0.60;;;20.40;26.40;20.80;91597.00;;;;10461690;28;46968;-61
2021/12/10 12:47:34;;;;;;;0.50;0.50;;;20.30;26.40;20.80;91589.00;;;;10466535;27;46990;-61
2021/12/10 12:52:47;;;;;;;0.95;0.57;;;20.30;26.40;20.80;91606.00;;;;10479095;28;45338;-62
2021/12/10 12:58:22;;;;;;;1.55;0.60;;;20.40;26.50;20.80;91608.00;;;;10479577;28;45149;-60
2021/12/10 13:03:57;;;;;;;0.43;0.40;;;20.30;26.40;20.80;91610.00;;;;10461530;28;47541;-61
2021/12/10 13:09:16;;;;;;;1.13;0.60;;;20.40;26.50;20.80;91623.00;;;;10469643;28;46428;-61
2021/12/10 13:14:20;;;;;;;0.82;0.70;;;20.30;26.40;20.80;91626.00;;;;10450420;28;45443;-61
2021/12/10 13:19:29;;;;;;;1.17;0.57;;;20.30;26.90;20.80;91620.00;;;;10368324;22;45392;-61
2021/12/10 13:24:30;;;;;;;1.33;0.63;;;20.30;26.70;20.80;91625.00;;;;10328606;28;45413;-60
2021/12/10 13:29:31;;;;;;;0.40;0.40;;;20.30;26.60;20.80;91637.00;;;;10299962;28;47191;-61
2021/12/10 13:34:32;;;;;;;0.57;0.40;;;20.30;26.60;20.80;91653.00;;;;10271856;28;45296;-60
2021/12/10 13:39:34;;;;;;;5.53;0.60;;;20.40;26.70;20.70;91653.00;;;;10271345;28;45702;-63
2021/12/10 13:44:42;;;;;;;2.22;0.50;;;20.30;26.10;20.70;91665.00;;;;10269926;28;46376;-66
2021/12/10 13:50:16;;;;;;;4.30;0.40;;;20.30;26.40;20.70;91665.00;;;;10265213;28;46747;-63
2021/12/10 13:55:45;;;;;;;1.05;0.38;;;20.30;26.80;20.80;91678.00;;;;10269930;28;47909;-66
2021/12/10 14:01:01;;;;;;;1.10;0.40;;;20.30;26.80;20.90;91699.00;;;;10217583;28;47144;-63
2021/12/10 14:06:03;;;;;;;1.08;0.30;;;20.40;27.10;20.90;91696.00;;;;10242521;28;45543;-63
2021/12/10 14:11:26;;;;;;;1.10;0.30;;;20.40;27.20;20.90;91714.00;;;;10261108;28;45470;-63
2021/12/10 14:16:54;;;;;;;3.33;0.57;;;20.40;27.10;20.90;91717.00;;;;10268616;28;45233;-62
2021/12/10 14:21:56;;;;;;;1.38;0.55;;;20.40;27.10;20.90;91731.00;;;;10269588;28;48351;-67
2021/12/10 14:27:23;;;;;;;0.70;0.47;;;20.40;27.00;20.90;91730.00;;;;10270186;28;46580;-64
2021/12/10 14:32:27;;;;;;;1.27;0.52;;;20.40;27.10;21.00;91747.00;;;;10262992;28;45335;-63
2021/12/10 14:37:28;;;;;;;0.50;0.30;;;20.50;27.20;20.90;91758.00;;;;10276055;28;45246;-62
2021/12/10 14:42:29;;;;;;;0.40;0.30;;;20.50;27.70;20.90;91768.00;;;;10248510;28;45317;-62
2021/12/10 14:47:30;;;;;;;0.25;0.22;;;20.50;27.10;20.90;91774.00;;;;10241326;28;47122;-64
2021/12/10 14:52:39;;;;;;;0.45;0.30;;;20.50;26.90;20.90;91787.00;;;;10249829;28;47241;-63
2021/12/10 14:58:12;;;;;;;0.93;0.30;;;20.50;27.10;20.80;91803.00;;;;10263833;28;45533;-63
2021/12/10 15:03:17;;;;;;;0.30;0.20;;;20.50;26.80;20.90;91810.00;;;;10235316;28;45386;-63
2021/12/10 15:08:50;;;;;;;0.30;0.20;;;20.40;27.40;20.90;91818.00;;;;10261352;28;46490;-63
2021/12/10 15:13:53;;;;;;;0.40;0.20;;;20.40;26.90;20.90;91831.00;;;;10275267;28;45221;-63
2021/12/10 15:19:17;;;;;;;1.15;0.30;;;20.40;27.00;20.90;91852.00;;;;10273655;28;47243;-63
2021/12/10 15:24:49;;;;;;;0.32;0.20;;;20.40;27.00;20.90;91860.00;;;;10254592;28;47225;-63
2021/12/10 15:29:59;;;;;;;0.55;0.20;;;20.40;27.00;20.90;91836.00;;;;10254772;28;45697;-63
2021/12/10 15:35:03;;;;;;;1.05;0.40;;;20.40;27.00;21.00;91864.00;;;;10272155;28;46269;-63
2021/12/10 15:40:18;;;;;;;0.30;0.28;;;20.40;27.10;20.90;91877.00;;;;10275049;28;45488;-64
2021/12/10 15:45:24;;;;;;;0.50;0.25;;;20.50;27.20;20.90;91877.00;;;;10240728;28;46562;-64
2021/12/10 15:50:34;;;;;;;0.40;0.20;;;20.40;27.10;21.00;91878.00;;;;10254562;28;46346;-64
2021/12/10 15:55:40;;;;;;;0.30;0.10;;;20.50;27.20;21.00;91878.00;;;;10274413;28;46984;-64
2021/12/10 16:00:42;;;;;;;2.95;0.73;;;20.50;27.10;21.00;91910.00;;;;10274207;28;45562;-64
2021/12/10 16:05:45;;;;;;;1.42;0.28;;;20.50;27.10;21.10;91922.00;;;;10275494;28;45439;-62
2021/12/10 16:10:51;;;;;;;0.20;0.20;;;20.60;27.30;21.10;91932.00;;;;10273888;28;47113;-62
2021/12/10 16:16:00;;;;;;;0.30;0.30;;;20.60;27.20;21.10;91918.00;;;;10261904;28;47094;-64
2021/12/10 16:21:12;;;;;;;0.80;0.40;;;20.60;27.30;21.10;91945.00;;;;10259258;28;45407;-63
2021/12/10 16:26:18;;;;;;;0.40;0.20;;;20.60;27.30;21.10;91941.00;;;;10265721;28;46943;-62
2021/12/10 16:31:23;;;;;;;0.63;0.20;;;20.60;27.40;21.10;91931.00;;;;10262247;28;47435;-64
2021/12/10 16:36:24;;;;;;;0.68;0.30;;;20.60;27.30;21.00;91955.00;;;;10265125;28;45513;-62
2021/12/10 16:41:42;;;;;;;0.95;0.38;;;20.60;27.30;21.10;91979.00;;;;10250223;28;45292;-63
2021/12/10 16:46:52;;;;;;;0.65;0.40;;;20.60;27.30;21.10;91998.00;;;;10268840;28;45195;-64
2021/12/10 16:52:10;;;;;;;0.90;0.30;;;20.60;27.30;21.10;91997.00;;;;10262644;28;45337;-63
2021/12/10 16:57:20;;;;;;;1.08;0.60;;;20.60;27.20;21.10;92010.00;;;;10251448;28;45416;-63
2021/12/10 17:02:27;;;;;;;0.73;0.60;;;20.60;27.20;21.10;92018.00;;;;10265809;28;46974;-64
2021/12/10 17:07:42;;;;;;;2.00;0.52;;;20.60;27.20;21.10;92036.00;;;;10271912;28;45419;-64
2021/12/10 17:12:43;;;;;;;1.33;0.40;;;20.60;27.40;21.00;92061.00;;;;10273498;28;45477;-67
2021/12/10 17:17:52;;;;;;;0.68;0.45;;;20.60;27.00;21.10;92081.00;;;;10271838;28;46370;-64
2021/12/10 17:22:57;;;;;;;0.80;0.40;;;20.60;27.00;21.10;92072.00;;;;10271817;28;47999;-62
2021/12/10 17:28:00;;;;;;;0.82;0.50;;;20.60;26.50;21.10;92101.00;;;;10271538;28;45315;-66
2021/12/10 17:33:08;;;;;;;0.52;0.40;;;20.60;26.70;21.10;92095.00;;;;10272283;28;45359;-67
2021/12/10 17:38:16;;;;;;;0.68;0.28;;;20.60;26.90;21.00;92104.00;;;;10270854;28;47757;-68
2021/12/10 17:43:21;;;;;;;0.88;0.40;;;20.60;26.90;21.10;92120.00;;;;10272150;28;48440;-67
2021/12/10 17:48:30;;;;;;;3.63;0.50;;;20.60;26.70;21.10;92136.00;;;;10271257;28;46897;-64
2021/12/10 17:53:32;;;;;;;1.52;0.30;;;20.60;26.70;21.10;92129.00;;;;10271524;28;45268;-66
2021/12/10 17:58:38;;;;;;;1.35;0.55;;;20.60;26.80;21.00;92158.00;;;;10269151;28;45636;-62
2021/12/10 18:03:52;;;;;;;0.45;0.25;;;20.60;26.90;21.00;92140.00;;;;10271697;28;46682;-63
2021/12/10 18:08:54;;;;;;;1.33;0.50;;;20.50;26.80;21.00;92164.00;;;;10286389;28;47480;-62
2021/12/10 18:13:55;;;;;;;1.88;0.40;;;20.50;26.70;21.00;92163.00;;;;10271635;28;45301;-62
2021/12/10 18:18:59;;;;;;;1.00;0.40;;;20.50;26.70;21.00;92140.00;;;;10268900;28;45287;-62
2021/12/10 18:24:11;;;;;;;1.70;0.50;;;20.50;26.70;21.00;92179.00;;;;10270139;28;45321;-62
2021/12/10 18:29:24;;;;;;;1.33;0.32;;;20.50;26.70;20.90;92179.00;;;;10269171;28;46320;-62
2021/12/10 18:34:29;;;;;;;0.60;0.45;;;20.50;26.80;21.00;92185.00;;;;10269227;28;47050;-63
2021/12/10 18:39:45;;;;;;;0.80;0.50;;;20.50;26.70;21.00;92212.00;;;;10285338;28;46449;-62
2021/12/10 18:44:55;;;;;;;1.00;0.47;;;20.50;26.70;20.90;92223.00;;;;10278683;28;45216;-63
2021/12/10 18:49:56;;;;;;;1.20;0.40;;;20.50;26.60;20.90;92232.00;;;;10231916;28;45277;-62
2021/12/10 18:55:05;;;;;;;1.40;0.50;;;20.50;26.60;20.90;92250.00;;;;10229496;28;45183;-63
2021/12/10 19:00:26;;;;;;;1.17;0.50;;;20.50;26.60;21.00;92247.00;;;;10228730;28;45775;-67
2021/12/10 19:05:43;;;;;;;1.20;0.50;;;20.50;26.70;21.00;92272.00;;;;10243822;28;47781;-68
2021/12/10 19:10:55;;;;;;;2.13;0.68;;;20.50;26.80;20.90;92261.00;;;;10268141;28;45646;-65
2021/12/10 19:16:05;;;;;;;0.50;0.30;;;20.50;26.80;20.90;92285.00;;;;10269813;28;45430;-66
2021/12/10 19:21:20;;;;;;;1.48;0.60;;;20.50;26.80;20.90;92290.00;;;;10271827;28;47879;-66
2021/12/10 19:26:23;;;;;;;0.80;0.40;;;20.40;26.80;20.90;92309.00;;;;10292765;28;45333;-66
2021/12/10 19:31:47;;;;;;;1.02;0.35;;;20.40;26.80;20.90;92310.00;;;;10276184;28;47259;-66
2021/12/10 19:36:57;;;;;;;0.65;0.30;;;20.50;26.80;20.90;92322.00;;;;10275417;28;47294;-66
2021/12/10 19:42:06;;;;;;;0.80;0.35;;;20.40;26.90;20.90;92352.00;;;;10292819;28;45398;-66
2021/12/10 19:47:20;;;;;;;1.17;0.50;;;20.50;26.90;20.90;92345.00;;;;10275408;28;47478;-66
2021/12/10 19:52:45;;;;;;;1.25;0.40;;;20.50;26.90;20.90;92352.00;;;;10291715;28;47053;-66
2021/12/10 19:57:50;;;;;;;1.67;0.55;;;20.40;26.90;20.90;92367.00;;;;10291151;28;45213;-66
2021/12/10 20:02:57;;;;;;;1.50;0.60;;;20.50;26.90;20.90;92375.00;;;;10291515;28;46073;-66
2021/12/10 20:08:10;;;;;;;1.58;0.50;;;20.50;26.90;20.90;92367.00;;;;10274678;28;47899;-66
2021/12/10 20:13:16;;;;;;;1.08;0.40;;;20.50;26.90;20.90;92375.00;;;;10291476;28;45225;-67
2021/12/10 20:19:07;;;;;;;1.33;0.33;;;20.40;26.80;20.90;92404.00;;;;10276156;28;45451;-66
2021/12/10 20:24:15;;;;;;;1.17;0.50;;;20.40;26.80;20.90;92403.00;;;;10266276;28;45385;-66
2021/12/10 20:29:30;;;;;;;1.83;0.32;;;20.50;26.80;20.90;92432.00;;;;10273923;28;47923;-66
2021/12/10 20:35:13;;;;;;;0.88;0.30;;;20.50;26.80;20.90;92434.00;;;;10274294;28;47051;-66
2021/12/10 20:40:28;;;;;;;0.50;0.20;;;20.40;26.80;20.90;92433.00;;;;10273600;28;47074;-66
2021/12/10 20:45:40;;;;;;;0.52;0.20;;;20.40;26.80;20.90;92446.00;;;;10274053;28;46367;-69
2021/12/10 20:51:11;;;;;;;0.93;0.35;;;20.50;26.80;20.90;92461.00;;;;10274046;28;45170;-66
2021/12/10 20:56:29;;;;;;;0.63;0.20;;;20.40;26.80;20.90;92446.00;;;;10273312;28;48112;-66
2021/12/10 21:01:46;;;;;;;0.70;0.30;;;20.40;26.80;20.90;92471.00;;;;10273355;28;47017;-66
2021/12/10 21:06:53;;;;;;;1.02;0.40;;;20.40;26.80;20.90;92467.00;;;;10273247;28;45303;-66
2021/12/10 21:12:03;;;;;;;;;;;20.40;26.70;20.90;92493.00;;;;10274028;28;46176;-66
2021/12/10 21:17:17;;;;;;;0.55;0.20;;;20.40;26.70;20.80;92496.00;;;;10272573;28;45455;-66
2021/12/10 21:22:28;;;;;;;1.00;0.35;;;20.40;26.70;20.90;92485.00;;;;10273044;28;46325;-67
2021/12/10 21:27:35;;;;;;;0.82;0.30;;;20.40;26.70;20.80;92502.00;;;;10272072;28;47002;-68
2021/12/10 21:32:45;;;;;;;1.05;0.30;;;20.30;26.60;20.80;92519.00;;;;10272363;28;47069;-67
2021/12/10 21:37:59;;;;;;;0.80;0.20;;;20.30;26.60;20.70;92527.00;;;;10272063;28;45183;-66
2021/12/10 21:43:11;;;;;;;0.70;0.45;;;20.30;26.60;20.70;92545.00;;;;10272285;28;48098;-66
2021/12/10 21:48:14;;;;;;;1.05;0.30;;;20.30;26.60;20.70;92559.00;;;;10271700;28;46497;-67
2021/12/10 21:53:20;;;;;;;0.65;0.30;;;20.30;26.60;20.70;92544.00;;;;10270952;28;45388;-67
2021/12/10 21:58:33;;;;;;;0.45;0.20;;;20.20;26.60;20.70;92546.00;;;;10266046;28;45376;-67
2021/12/10 22:03:54;;;;;;;1.13;0.35;;;20.20;26.60;20.70;92550.00;;;;10271069;28;46911;-67
2021/12/10 22:09:09;;;;;;;0.40;0.30;;;20.20;27.10;20.70;92562.00;;;;10271037;28;45450;-67
2021/12/10 22:14:16;;;;;;;0.85;0.30;;;20.20;26.60;20.60;92575.00;;;;10271594;28;45415;-66
2021/12/10 22:19:27;;;;;;;0.45;0.20;;;20.20;26.70;20.60;92589.00;;;;10271898;28;46448;-66
2021/12/10 22:24:34;;;;;;;0.90;0.30;;;20.20;26.60;20.60;92601.00;;;;10271485;28;45337;-67
2021/12/10 22:29:39;;;;;;;0.45;0.20;;;20.20;26.60;20.60;92589.00;;;;10246361;28;46916;-67
2021/12/10 22:34:56;;;;;;;0.63;0.20;;;20.10;26.60;20.60;92612.00;;;;10230705;28;47468;-65
2021/12/10 22:40:03;;;;;;;1.40;0.20;;;20.10;26.60;20.60;92607.00;;;;10231936;28;46055;-67
2021/12/10 22:45:16;;;;;;;1.05;0.38;;;20.10;26.60;20.60;92607.00;;;;10231077;28;45317;-67
2021/12/10 22:50:49;;;;;;;0.52;0.25;;;20.10;26.60;20.50;92646.00;;;;10231375;28;45382;-67
2021/12/10 22:55:50;;;;;;;1.75;0.20;;;20.10;26.60;20.50;92626.00;;;;10232928;28;45358;-67